Актобе

Карта отелей и гостиниц, располагающихся рядом с аэропортом Актобе :

Актобе Актюбинская область 50° 14' 46.2588" N, 57° 12' 19.62" E
Код аэродрома ИКАО
UATT
Код аэродрома RU
УАТТ
Координаты
N50.24618° E057.20545°
Превышение над уровнем моря
225
Основная полоса
13L/31R
Курс магнитный
124,9/304,9
Длина основной ВПП
3230
Ширина основной ВПП
60
Покрытие основной ВПП
Твёрдое (железобетон)
Освещение ВПП
По запросу
Тип: 
Аэродром
Класс аэродрома: 
Международный
Принадлежность: 
ГА
Статус: 
Действующий
Сайт: 
http://www.airport-aktobe.kz/
Страна: 
Казахстан
Регион: 
Актюбинская область
Дополнительная информация: 
Совместного базирования. К территории АД примыкает АРЗ №406 ГА, производящий ремонт самолётов Ан-2 и Як-18, вертолётов Ми-2. на аэродроме базируется военная авиация — учебные самолёты Военного института Сил воздушной обороны Республики Казахстан имени дважды героя Т.Я. Бегельдинова. Институт создан в 1996 на основе бывшего Актюбинского высшего лётного училища гражданской авиации (АВЛУГА) и имеет также учебный грунтовый аэродром "Хлебодаровка".
Погода: 

Авиационная погода в Актобе

Регион: 
Погода METAR: 
UATT 282200Z 36005MPS CAVOK 11/03 Q1010 NOSIG RMK QFE737/0983
Время наблюдения
2022-06-28T22:00:00Z
Температура C
11.0
Точка росы
3.0
Направление ветра
360
Скорость ветра (узлы)
10
Метео видимость
6.21
Облачность
CAVOK
Нижняя граница облачности (футы)
Явления погоды
Условия полета
VFR
Аэропорт подробнее: 
Прогноз TAF: 

Найти трансфер

С помощью этой формы Вы можете найти трансфер из аэропорта Актобе в город, аэропорт или вокзал:

Погода в аэропортах:

Авиационная погода в Игнатьево

Регион: 
Погода METAR: 
UHBB 282200Z 35002MPS 0150 0100W R36/M0200N FG VV002 18/18 Q1003 R36/090060 NOSIG RMK QBB060 QFE735/0980
Время наблюдения
2022-06-28T22:00:00Z
Температура C
18.0
Точка росы
18.0
Направление ветра
350
Скорость ветра (узлы)
4
Метео видимость
0.09
Облачность
OVX
Нижняя граница облачности (футы)
0
Явления погоды
FG
Условия полета
LIFR
Аэропорт подробнее: 
FG – туман (небо не видно, температура воздуха выше нуля или ноль);

Авиационная погода в Закаталы

Регион: 
Погода METAR: 
UBBY 040100Z 08014KT 5000 -SHRA SCT040CB OVC045 15/14 Q1019 NOSIG RMK MT OBSC
Время наблюдения
2022-07-04T01:00:00Z
Температура C
15.0
Точка росы
14.0
Направление ветра
80
Скорость ветра (узлы)
14
Метео видимость
3.11
Облачность
SCT
OVC
Нижняя граница облачности (футы)
4000
4500
Явления погоды
-SHRA
Условия полета
MVFR
SCT – разбросанная отдельная облачность; OVC – сплошная облачность;
-SHRA - слабый ливневой дождь;

Авиационная погода в Мирном

Регион: 
Погода METAR: 
UERR 282200Z 06003MPS 0700 FG VV003 10/10 Q1000 R07/CLRD60 TEMPO 0300 FG VV001 RMK QBB070 QFE720/0960
Время наблюдения
2022-06-28T22:00:00Z
Температура C
10.0
Точка росы
10.0
Направление ветра
60
Скорость ветра (узлы)
6
Метео видимость
0.43
Облачность
OVX
Нижняя граница облачности (футы)
0
Явления погоды
FG
Условия полета
LIFR
Аэропорт подробнее: 
FG – туман (небо не видно, температура воздуха выше нуля или ноль);

Авиационная погода в Кокшетау

Регион: 
Погода METAR: 
UACK 040530Z 07006MPS 9999 -RA OVC074 14/12 Q0999 NOSIG RMK QFE725/0967
Время наблюдения
2022-07-04T05:30:00Z
Температура C
14.0
Точка росы
12.0
Направление ветра
70
Скорость ветра (узлы)
12
Метео видимость
6.21
Облачность
OVC
Нижняя граница облачности (футы)
7400
Явления погоды
-RA
Условия полета
VFR
Аэропорт подробнее: 
OVC – сплошная облачность;
-RA - слабый дождь;